Time;durP1;ratioP1;P1;durP2;ratioP2;P2;SDS_P1;SDS_P2;PMS_P1;PMS_P2;Temp;Humidity;BMP_temperature;BMP_pressure;BME280_temperature;BME280_humidity;BME280_pressure;Samples;Min_cycle;Max_cycle;Signal;HPM_P1;HPM_P2
2022/12/14 00:01:45;;;;;;;4.28;2.60;;;1.00;99.90;;;;;;5024276;28;20124;-79
2022/12/14 00:04:15;;;;;;;3.50;2.42;;;0.90;99.90;;;;;;5040280;28;20068;-79
2022/12/14 00:06:43;;;;;;;3.15;2.45;;;0.90;99.90;;;;;;5058781;28;20048;-79
2022/12/14 00:09:10;;;;;;;3.33;2.42;;;0.90;99.90;;;;;;5059590;28;20063;-79
2022/12/14 00:11:37;;;;;;;3.78;2.40;;;0.90;99.90;;;;;;5043717;28;20196;-79
2022/12/14 00:14:04;;;;;;;3.70;2.25;;;1.00;99.90;;;;;;5039017;28;20053;-80
2022/12/14 00:16:32;;;;;;;4.20;2.88;;;1.00;99.90;;;;;;5059911;28;20068;-79
2022/12/14 00:18:59;;;;;;;4.10;2.67;;;1.00;99.90;;;;;;5051306;28;20053;-79
2022/12/14 00:21:26;;;;;;;3.20;2.20;;;1.00;99.90;;;;;;5039984;28;20433;-79
2022/12/14 00:23:53;;;;;;;3.40;2.38;;;1.00;99.90;;;;;;5040877;28;20049;-79
2022/12/14 00:26:22;;;;;;;3.58;2.60;;;1.00;99.90;;;;;;5040472;28;20483;-78
2022/12/14 00:28:50;;;;;;;3.60;2.50;;;1.00;99.90;;;;;;5056293;28;20140;-79
2022/12/14 00:31:20;;;;;;;3.20;2.30;;;0.90;99.90;;;;;;5042901;28;20072;-78
2022/12/14 00:33:47;;;;;;;3.53;2.22;;;0.90;99.90;;;;;;5045727;28;20140;-80
2022/12/14 00:36:14;;;;;;;4.30;2.28;;;0.90;99.90;;;;;;5062732;28;20041;-80
2022/12/14 00:38:41;;;;;;;4.30;2.33;;;0.80;99.90;;;;;;5045918;28;20139;-80
2022/12/14 00:41:08;;;;;;;4.03;2.55;;;0.80;99.90;;;;;;5063228;28;20053;-79
2022/12/14 00:43:35;;;;;;;4.82;2.55;;;0.70;99.90;;;;;;5045525;28;20040;-79
2022/12/14 00:46:01;;;;;;;3.88;2.60;;;0.70;99.90;;;;;;5028347;28;20056;-80
2022/12/14 00:48:30;;;;;;;4.22;2.67;;;0.70;99.90;;;;;;5041659;28;20041;-79
2022/12/14 00:50:58;;;;;;;3.92;3.03;;;0.70;99.90;;;;;;5041311;28;20045;-79
2022/12/14 00:53:24;;;;;;;4.78;3.10;;;0.60;99.90;;;;;;5031216;28;20113;-79
2022/12/14 00:55:51;;;;;;;4.32;2.72;;;0.60;99.90;;;;;;5062004;28;20045;-79
2022/12/14 00:58:20;;;;;;;4.47;3.03;;;0.60;99.90;;;;;;5061237;28;20056;-79
2022/12/14 01:00:47;;;;;;;4.45;2.70;;;0.60;99.90;;;;;;5057623;28;20052;-79
2022/12/14 01:03:14;;;;;;;4.10;3.38;;;0.50;99.90;;;;;;5045048;28;20045;-79
2022/12/14 01:05:41;;;;;;;4.47;2.90;;;0.50;99.90;;;;;;5045278;28;20471;-79
2022/12/14 01:08:15;;;;;;;4.82;3.30;;;0.50;99.90;;;;;;5046390;28;20052;-79
2022/12/14 01:10:41;;;;;;;4.20;2.50;;;0.50;99.90;;;;;;5042626;28;20045;-79
2022/12/14 01:13:09;;;;;;;4.65;2.47;;;0.60;99.90;;;;;;5044837;28;20058;-79
2022/12/14 01:15:36;;;;;;;3.47;2.67;;;0.60;99.90;;;;;;5042135;28;20056;-79
2022/12/14 01:18:04;;;;;;;4.65;2.83;;;0.60;99.90;;;;;;5060979;28;20045;-80
2022/12/14 01:20:30;;;;;;;4.00;2.65;;;0.60;99.90;;;;;;5046079;28;20483;-80
2022/12/14 01:22:57;;;;;;;4.07;2.47;;;0.60;99.90;;;;;;5041447;28;20052;-79
2022/12/14 01:25:24;;;;;;;3.80;2.50;;;0.60;99.90;;;;;;5061133;28;20127;-80
2022/12/14 01:27:51;;;;;;;4.15;2.45;;;0.70;99.90;;;;;;5044243;28;20052;-79
2022/12/14 01:30:18;;;;;;;4.10;2.60;;;0.70;99.90;;;;;;5045775;28;20044;-78
2022/12/14 01:32:46;;;;;;;3.88;2.20;;;0.70;99.90;;;;;;5061827;28;20113;-79
2022/12/14 01:35:13;;;;;;;4.20;2.72;;;0.70;99.90;;;;;;5062405;28;20367;-79
2022/12/14 01:37:40;;;;;;;2.75;2.05;;;0.70;99.90;;;;;;5060638;28;20064;-79
2022/12/14 01:40:07;;;;;;;5.15;2.90;;;0.70;99.90;;;;;;5061678;28;20448;-79
2022/12/14 01:42:35;;;;;;;3.70;2.33;;;0.70;99.90;;;;;;5041087;28;20507;-79
2022/12/14 01:45:02;;;;;;;4.03;2.50;;;0.80;99.90;;;;;;5055962;28;20045;-79
2022/12/14 01:47:35;;;;;;;3.78;2.38;;;0.80;99.90;;;;;;5043482;28;20136;-79
2022/12/14 01:50:07;;;;;;;3.45;2.60;;;0.70;99.90;;;;;;5061886;28;20124;-79
2022/12/14 01:52:40;;;;;;;2.95;2.10;;;0.70;99.90;;;;;;5044149;28;20041;-79
2022/12/14 01:55:18;;;;;;;3.88;2.42;;;0.70;99.90;;;;;;5062037;28;20056;-79
2022/12/14 01:58:18;;;;;;;3.58;2.10;;;0.70;99.90;;;;;;5029041;28;20131;-78
2022/12/14 02:00:45;;;;;;;3.03;1.70;;;0.70;99.90;;;;;;5059919;28;20244;-79
2022/12/14 02:03:17;;;;;;;3.40;2.50;;;0.70;99.90;;;;;;5045128;28;20396;-79
2022/12/14 02:05:46;;;;;;;3.55;2.60;;;0.70;99.90;;;;;;5045363;28;20574;-79
2022/12/14 02:08:13;;;;;;;3.72;2.10;;;0.70;99.90;;;;;;5041104;28;20111;-79
2022/12/14 02:10:40;;;;;;;2.88;1.92;;;0.70;99.90;;;;;;5044498;28;20048;-79
2022/12/14 02:13:21;;;;;;;3.80;2.38;;;0.60;99.90;;;;;;5060340;28;20051;-78
2022/12/14 02:15:49;;;;;;;3.08;2.40;;;0.60;99.90;;;;;;5028332;28;20048;-78
2022/12/14 02:18:18;;;;;;;3.25;2.17;;;0.60;99.90;;;;;;5043988;28;20040;-79
2022/12/14 02:21:01;;;;;;;3.63;2.22;;;0.60;99.90;;;;;;5061092;28;20132;-79
2022/12/14 02:24:00;;;;;;;2.63;1.90;;;0.60;99.90;;;;;;5042787;28;20424;-78
2022/12/14 02:26:49;;;;;;;3.17;2.10;;;0.60;99.90;;;;;;5050128;28;20055;-79
2022/12/14 02:29:48;;;;;;;3.10;2.03;;;0.60;99.90;;;;;;5063321;28;20041;-79
2022/12/14 02:32:33;;;;;;;3.60;2.55;;;0.50;99.90;;;;;;5052733;28;20076;-78
2022/12/14 02:35:18;;;;;;;4.65;3.13;;;0.50;99.90;;;;;;5059742;28;20049;-79
2022/12/14 02:38:20;;;;;;;3.78;2.70;;;0.50;99.90;;;;;;5042504;28;20072;-78
2022/12/14 02:41:02;;;;;;;3.05;1.95;;;0.50;99.90;;;;;;5055350;28;20056;-79
2022/12/14 02:43:53;;;;;;;4.38;2.90;;;0.50;99.90;;;;;;5045286;28;20079;-79
2022/12/14 02:46:28;;;;;;;4.18;2.50;;;0.40;99.90;;;;;;5047224;28;20064;-79
2022/12/14 02:48:56;;;;;;;3.42;2.40;;;0.40;99.90;;;;;;5048174;28;20053;-78
2022/12/14 02:51:44;;;;;;;3.40;2.50;;;0.40;99.90;;;;;;5044383;28;20037;-77
2022/12/14 02:54:15;;;;;;;4.07;3.05;;;0.30;99.90;;;;;;5061348;28;20084;-79
2022/12/14 02:56:46;;;;;;;4.40;3.00;;;0.30;99.90;;;;;;5064663;28;20048;-79
2022/12/14 02:59:13;;;;;;;4.82;2.63;;;0.30;99.90;;;;;;5027892;28;20049;-79
2022/12/14 03:01:40;;;;;;;3.85;2.40;;;0.30;99.90;;;;;;5028023;28;20049;-78
2022/12/14 03:04:13;;;;;;;3.38;2.30;;;0.30;99.90;;;;;;5030793;28;20480;-78
2022/12/14 03:06:52;;;;;;;3.50;2.35;;;0.30;99.90;;;;;;5028253;28;20044;-79
2022/12/14 03:09:19;;;;;;;3.92;2.88;;;0.30;99.90;;;;;;5039264;28;20143;-79
2022/12/14 03:12:00;;;;;;;4.00;2.20;;;0.20;99.90;;;;;;5063259;28;20080;-78
2022/12/14 03:14:30;;;;;;;3.65;2.53;;;0.20;99.90;;;;;;5042609;28;20099;-79
2022/12/14 03:17:02;;;;;;;3.60;2.10;;;0.20;99.90;;;;;;5043954;28;20053;-79
2022/12/14 03:19:36;;;;;;;4.07;2.58;;;0.20;99.90;;;;;;5038381;28;20041;-79
2022/12/14 03:22:09;;;;;;;4.55;2.33;;;0.10;99.90;;;;;;5065407;28;20113;-79
2022/12/14 03:25:05;;;;;;;3.03;2.20;;;0.10;99.90;;;;;;5047046;28;20048;-78
2022/12/14 03:27:33;;;;;;;3.42;2.15;;;0.10;99.90;;;;;;5049786;28;20124;-79
2022/12/14 03:30:04;;;;;;;2.75;1.92;;;0.00;99.90;;;;;;5063312;28;20080;-79
2022/12/14 03:32:31;;;;;;;3.10;1.95;;;-0.10;99.90;;;;;;5065473;28;20056;-79
2022/12/14 03:35:01;;;;;;;3.40;2.10;;;-0.10;99.90;;;;;;5047066;28;20132;-79
2022/12/14 03:37:37;;;;;;;3.65;2.35;;;-0.10;99.90;;;;;;5047290;28;20045;-78
2022/12/14 03:40:08;;;;;;;3.60;2.20;;;-0.20;99.90;;;;;;5047870;28;20388;-79
2022/12/14 03:42:44;;;;;;;3.67;2.53;;;-0.20;99.90;;;;;;5063117;28;20048;-78
2022/12/14 03:45:26;;;;;;;3.58;2.38;;;-0.20;99.90;;;;;;5047239;28;20083;-79
2022/12/14 03:47:59;;;;;;;4.03;2.65;;;-0.30;99.90;;;;;;5053271;28;20044;-78
2022/12/14 03:50:32;;;;;;;4.93;3.50;;;-0.30;99.90;;;;;;5044074;28;20118;-79
2022/12/14 03:53:21;;;;;;;3.03;2.13;;;-0.30;99.90;;;;;;5055735;28;20129;-79
2022/12/14 03:56:22;;;;;;;3.10;1.95;;;-0.30;99.90;;;;;;5064435;28;20048;-79
2022/12/14 03:59:31;;;;;;;3.42;2.42;;;-0.40;99.90;;;;;;5062437;28;20049;-79
2022/12/14 04:02:08;;;;;;;2.70;1.88;;;-0.40;99.90;;;;;;5011769;28;20061;-79
2022/12/14 04:04:43;;;;;;;3.15;2.03;;;-0.50;99.90;;;;;;5042988;28;20105;-79
2022/12/14 04:07:09;;;;;;;3.15;2.20;;;-0.60;99.90;;;;;;5058276;28;20384;-79
2022/12/14 04:10:01;;;;;;;2.90;1.88;;;-0.60;99.90;;;;;;5066700;28;20082;-79
2022/12/14 04:21:38;;;;;;;2.45;1.90;;;-0.80;99.90;;;;;;5067175;28;20067;-79
2022/12/14 04:27:30;;;;;;;2.83;1.90;;;-0.80;99.90;;;;;;5063028;28;20041;-79
2022/12/14 04:29:57;;;;;;;3.23;2.60;;;-0.80;99.90;;;;;;5066936;28;20063;-80
2022/12/14 04:32:27;;;;;;;2.17;1.65;;;-0.90;99.90;;;;;;5067480;28;20052;-79
2022/12/14 04:35:02;;;;;;;2.78;1.80;;;-0.90;99.90;;;;;;5066555;28;20090;-79
2022/12/14 04:37:29;;;;;;;3.05;1.80;;;-1.00;99.90;;;;;;5066672;28;20036;-80
2022/12/14 04:40:23;;;;;;;2.50;2.10;;;-1.00;99.90;;;;;;5050341;28;20087;-80
2022/12/14 04:42:53;;;;;;;3.22;1.88;;;-1.00;99.90;;;;;;5052985;28;20152;-80
2022/12/14 04:45:23;;;;;;;3.88;2.22;;;-1.00;99.90;;;;;;5033543;28;20047;-79
2022/12/14 04:47:58;;;;;;;3.35;2.00;;;-1.00;99.90;;;;;;5045797;28;20675;-79
2022/12/14 04:50:30;;;;;;;2.10;1.85;;;-1.00;99.90;;;;;;5049801;28;20065;-80
2022/12/14 04:53:01;;;;;;;3.10;1.88;;;-1.00;99.90;;;;;;5065767;28;20100;-78
2022/12/14 04:55:38;;;;;;;4.05;2.13;;;-1.10;99.90;;;;;;5049959;28;20135;-80
2022/12/14 04:58:11;;;;;;;3.45;2.20;;;-1.10;99.90;;;;;;5047112;28;20055;-79
2022/12/14 05:01:17;;;;;;;3.20;2.00;;;-1.10;99.90;;;;;;5045894;28;20144;-79
2022/12/14 05:04:01;;;;;;;3.13;1.83;;;-1.20;99.90;;;;;;5022166;28;20067;-79
2022/12/14 05:06:54;;;;;;;3.92;2.42;;;-1.20;99.90;;;;;;5047958;28;20059;-79
2022/12/14 05:09:26;;;;;;;4.30;2.30;;;-1.20;99.90;;;;;;5056405;28;20071;-80
2022/12/14 05:12:18;;;;;;;3.40;2.20;;;-1.30;99.90;;;;;;5049784;28;20130;-79
2022/12/14 05:15:09;;;;;;;3.22;2.10;;;-1.30;99.90;;;;;;5032411;28;20475;-79
2022/12/14 05:17:37;;;;;;;4.53;2.67;;;-1.40;99.90;;;;;;5062719;28;20080;-80
2022/12/14 05:20:04;;;;;;;3.28;1.92;;;-1.40;99.90;;;;;;5064025;28;20050;-80
2022/12/14 05:22:31;;;;;;;3.55;2.20;;;-1.50;99.90;;;;;;5064557;28;20381;-80
2022/12/14 05:24:58;;;;;;;3.65;2.38;;;-1.50;99.90;;;;;;5045893;28;20051;-79
2022/12/14 05:27:25;;;;;;;3.92;2.70;;;-1.60;99.90;;;;;;5066061;28;20055;-80
2022/12/14 05:29:52;;;;;;;5.93;3.72;;;-1.60;99.90;;;;;;5048494;28;20041;-79
2022/12/14 05:32:19;;;;;;;6.68;3.83;;;-1.50;99.90;;;;;;5050095;28;20041;-80
2022/12/14 05:34:45;;;;;;;6.20;4.25;;;-1.50;99.90;;;;;;5065378;28;20053;-79
2022/12/14 05:37:12;;;;;;;5.93;4.03;;;-1.40;99.90;;;;;;5061962;28;20072;-78
2022/12/14 05:39:44;;;;;;;6.38;4.68;;;-1.40;99.90;;;;;;5046702;28;20063;-79
2022/12/14 05:42:10;;;;;;;6.18;4.05;;;-1.40;99.90;;;;;;5056385;28;20095;-78
2022/12/14 05:44:37;;;;;;;6.50;4.53;;;-1.30;99.90;;;;;;5047718;28;20052;-80
2022/12/14 05:47:04;;;;;;;6.47;4.45;;;-1.30;99.90;;;;;;5065159;28;20072;-79
2022/12/14 05:49:31;;;;;;;5.80;4.32;;;-1.30;99.90;;;;;;5042400;28;20132;-79
2022/12/14 05:51:58;;;;;;;6.32;4.22;;;-1.30;99.90;;;;;;5062755;28;20419;-79
2022/12/14 05:54:26;;;;;;;6.20;4.22;;;-1.30;99.90;;;;;;5046635;28;20067;-79
2022/12/14 05:56:52;;;;;;;6.50;3.72;;;-1.30;99.90;;;;;;5063923;28;20369;-79
2022/12/14 05:59:19;;;;;;;7.22;4.88;;;-1.30;99.90;;;;;;5046070;28;20613;-78
2022/12/14 06:01:47;;;;;;;8.00;4.95;;;-1.30;99.90;;;;;;5063517;28;20052;-79
2022/12/14 06:04:17;;;;;;;7.00;4.75;;;-1.30;99.90;;;;;;5059914;28;20839;-80
2022/12/14 06:06:44;;;;;;;6.20;4.32;;;-1.30;99.90;;;;;;5061301;28;20134;-79
2022/12/14 06:09:16;;;;;;;6.82;4.40;;;-1.30;99.90;;;;;;5027400;28;20809;-79
2022/12/14 06:11:44;;;;;;;4.80;4.07;;;-1.30;99.90;;;;;;5050732;28;20059;-80
2022/12/14 06:14:11;;;;;;;5.32;3.78;;;-1.40;99.90;;;;;;5042401;28;20124;-79
2022/12/14 06:16:42;;;;;;;6.65;4.30;;;-1.40;99.90;;;;;;5059693;28;20153;-79
2022/12/14 06:19:10;;;;;;;6.75;4.60;;;-1.40;99.90;;;;;;5044305;28;20052;-80
2022/12/14 06:21:38;;;;;;;7.35;4.85;;;-1.40;99.90;;;;;;5038162;28;20071;-80
2022/12/14 06:24:06;;;;;;;6.53;4.38;;;-1.40;99.90;;;;;;5075873;28;20048;-80
2022/12/14 06:26:35;;;;;;;8.32;5.00;;;-1.40;99.90;;;;;;5061818;28;20056;-80
2022/12/14 06:29:02;;;;;;;7.70;5.20;;;-1.40;99.90;;;;;;5043973;28;20049;-81
2022/12/14 06:31:30;;;;;;;6.97;4.75;;;-1.40;99.90;;;;;;5056767;28;20052;-79
2022/12/14 06:33:58;;;;;;;9.35;5.13;;;-1.40;99.90;;;;;;5040887;28;20049;-78
2022/12/14 06:36:32;;;;;;;7.65;4.38;;;-1.40;99.90;;;;;;5037514;28;20044;-80
2022/12/14 06:39:04;;;;;;;7.95;5.00;;;-1.50;99.90;;;;;;5031994;28;20492;-77
2022/12/14 06:41:30;;;;;;;7.10;5.35;;;-1.50;99.90;;;;;;5039282;28;20498;-78
2022/12/14 06:44:04;;;;;;;8.10;5.05;;;-1.50;99.90;;;;;;5033630;28;20065;-78
2022/12/14 06:46:31;;;;;;;8.90;5.82;;;-1.50;99.90;;;;;;5030842;28;20468;-78
2022/12/14 06:48:57;;;;;;;9.05;6.25;;;-1.50;99.90;;;;;;5059270;28;20114;-78
2022/12/14 06:51:24;;;;;;;9.30;6.10;;;-1.50;99.90;;;;;;5064388;28;20111;-78
2022/12/14 06:53:53;;;;;;;9.63;6.93;;;-1.50;99.90;;;;;;5059135;28;20152;-76
2022/12/14 06:56:21;;;;;;;11.68;7.28;;;-1.50;99.90;;;;;;5063221;28;20052;-78
2022/12/14 06:58:47;;;;;;;11.43;7.38;;;-1.50;99.90;;;;;;5040296;28;20140;-80
2022/12/14 07:01:19;;;;;;;13.20;7.70;;;-1.50;99.90;;;;;;5038487;28;20052;-79
2022/12/14 07:03:48;;;;;;;14.18;9.32;;;-1.50;99.90;;;;;;5042146;28;20166;-78
2022/12/14 07:06:16;;;;;;;17.83;10.90;;;-1.50;99.90;;;;;;5056729;28;20055;-79
2022/12/14 07:08:43;;;;;;;14.02;9.57;;;-1.60;99.90;;;;;;5047745;28;20439;-80
2022/12/14 07:11:11;;;;;;;17.15;10.45;;;-1.60;99.90;;;;;;5056100;28;20576;-80
2022/12/14 07:13:38;;;;;;;17.17;10.90;;;-1.50;99.90;;;;;;5038463;28;20053;-80
2022/12/14 07:16:05;;;;;;;15.23;9.68;;;-1.50;99.90;;;;;;5039328;28;20052;-73
2022/12/14 07:18:32;;;;;;;12.48;9.38;;;-1.50;99.90;;;;;;5030369;28;20048;-74
2022/12/14 07:21:00;;;;;;;13.15;9.70;;;-1.50;99.90;;;;;;5039075;28;20067;-74
2022/12/14 07:23:28;;;;;;;15.82;9.75;;;-1.50;99.90;;;;;;5055673;28;20085;-74
2022/12/14 07:26:08;;;;;;;14.52;10.68;;;-1.60;99.90;;;;;;5040277;28;20171;-74
2022/12/14 07:28:37;;;;;;;17.95;10.88;;;-1.60;99.90;;;;;;5022836;28;20178;-74
2022/12/14 07:31:12;;;;;;;18.63;12.32;;;-1.60;99.90;;;;;;5056894;28;20804;-74
2022/12/14 07:33:39;;;;;;;16.70;11.43;;;-1.60;99.90;;;;;;5057651;28;20185;-74
2022/12/14 07:36:07;;;;;;;15.90;11.13;;;-1.60;99.90;;;;;;5057418;28;20527;-74
2022/12/14 07:38:35;;;;;;;14.48;10.95;;;-1.60;99.90;;;;;;5057949;28;20439;-72
2022/12/14 07:41:15;;;;;;;19.52;12.48;;;-1.60;99.90;;;;;;5058243;28;20469;-73
2022/12/14 07:43:48;;;;;;;19.02;12.35;;;-1.60;99.90;;;;;;5058164;28;20507;-72
2022/12/14 07:46:17;;;;;;;17.80;10.48;;;-1.60;99.90;;;;;;5062316;28;20151;-73
2022/12/14 07:48:45;;;;;;;18.83;12.00;;;-1.60;99.90;;;;;;5059926;28;20087;-73
2022/12/14 07:51:13;;;;;;;17.05;10.85;;;-1.50;99.90;;;;;;5060469;28;20074;-72
2022/12/14 07:53:39;;;;;;;15.05;10.02;;;-1.60;99.90;;;;;;5060719;28;20144;-72
2022/12/14 07:56:11;;;;;;;13.13;9.18;;;-1.60;99.90;;;;;;5055047;28;20167;-72
2022/12/14 07:58:38;;;;;;;14.80;10.05;;;-1.60;99.90;;;;;;5059378;28;20179;-73
2022/12/14 08:01:14;;;;;;;13.60;7.78;;;-1.60;99.90;;;;;;5061755;28;20083;-73
2022/12/14 08:03:55;;;;;;;16.52;10.40;;;-1.60;99.90;;;;;;5059528;28;20080;-72
2022/12/14 08:06:23;;;;;;;14.55;9.82;;;-1.60;99.90;;;;;;5060377;28;20349;-73
2022/12/14 08:08:50;;;;;;;16.60;11.25;;;-1.60;99.90;;;;;;5060748;28;20058;-72
2022/12/14 08:11:17;;;;;;;15.48;10.50;;;-1.60;99.90;;;;;;5043281;28;20235;-72
2022/12/14 08:13:45;;;;;;;18.30;11.63;;;-1.60;99.90;;;;;;5059463;28;20045;-72
2022/12/14 08:16:13;;;;;;;17.45;10.23;;;-1.60;99.90;;;;;;5061759;28;20052;-73
2022/12/14 08:18:41;;;;;;;13.10;9.65;;;-1.60;99.90;;;;;;5059545;28;20521;-72
2022/12/14 08:21:08;;;;;;;14.93;9.55;;;-1.60;99.90;;;;;;5060389;28;20150;-73
2022/12/14 08:23:35;;;;;;;17.83;11.45;;;-1.60;99.90;;;;;;5060446;28;20470;-73
2022/12/14 08:26:03;;;;;;;15.80;11.10;;;-1.60;99.90;;;;;;5057451;28;20049;-73
2022/12/14 08:28:30;;;;;;;14.05;9.75;;;-1.50;99.90;;;;;;5058552;28;20048;-72
2022/12/14 08:30:57;;;;;;;14.38;9.18;;;-1.50;99.90;;;;;;5043577;28;20048;-73
2022/12/14 08:33:24;;;;;;;15.48;9.40;;;-1.50;99.90;;;;;;5045856;28;20179;-73
2022/12/14 08:35:50;;;;;;;20.27;12.07;;;-1.50;99.90;;;;;;5079388;28;20059;-72
2022/12/14 08:38:17;;;;;;;20.63;12.88;;;-1.40;99.90;;;;;;5061390;28;20083;-73
2022/12/14 08:40:44;;;;;;;15.85;10.07;;;-1.40;99.90;;;;;;5047643;28;20193;-72
2022/12/14 08:43:11;;;;;;;16.15;9.23;;;-1.40;99.90;;;;;;5052133;28;20052;-72
2022/12/14 08:45:38;;;;;;;11.93;8.88;;;-1.40;99.90;;;;;;5068066;28;20127;-72
2022/12/14 08:48:05;;;;;;;14.70;9.02;;;-1.30;99.90;;;;;;5066363;28;20072;-72
2022/12/14 08:50:31;;;;;;;12.65;8.60;;;-1.30;99.90;;;;;;5062599;28;20057;-73
2022/12/14 08:52:58;;;;;;;15.40;9.70;;;-1.30;99.90;;;;;;5058775;28;20136;-72
2022/12/14 08:55:25;;;;;;;13.00;8.55;;;-1.30;99.90;;;;;;5061516;28;20163;-73
2022/12/14 08:57:58;;;;;;;14.52;9.88;;;-1.30;99.90;;;;;;5065259;28;20105;-73
2022/12/14 09:00:25;;;;;;;13.45;8.40;;;-1.20;99.90;;;;;;5061857;28;20052;-74
2022/12/14 09:02:53;;;;;;;14.98;10.02;;;-1.20;99.90;;;;;;5070017;28;20052;-73
2022/12/14 09:05:20;;;;;;;13.75;8.65;;;-1.20;99.90;;;;;;5057006;28;20041;-73
2022/12/14 09:07:46;;;;;;;14.38;8.07;;;-1.10;99.90;;;;;;5059524;28;20061;-73
2022/12/14 09:10:14;;;;;;;13.30;8.75;;;-1.10;99.90;;;;;;5068234;28;21150;-73
2022/12/14 09:12:40;;;;;;;16.33;10.00;;;-1.00;99.90;;;;;;5063712;28;20134;-73
2022/12/14 09:15:10;;;;;;;16.27;10.00;;;-0.90;99.90;;;;;;5061152;28;20052;-73
2022/12/14 09:17:37;;;;;;;15.27;8.80;;;-0.90;99.90;;;;;;5057118;28;20052;-73
2022/12/14 09:20:05;;;;;;;12.20;7.50;;;-0.90;99.90;;;;;;5059891;28;20148;-73
2022/12/14 09:22:31;;;;;;;12.98;7.90;;;-0.80;99.90;;;;;;5064337;28;20123;-74
2022/12/14 09:24:58;;;;;;;15.23;9.65;;;-0.80;99.90;;;;;;5062438;28;20087;-73
2022/12/14 09:27:25;;;;;;;11.00;7.78;;;-0.80;99.90;;;;;;5059924;28;20068;-74
2022/12/14 09:29:52;;;;;;;13.45;8.63;;;-0.80;99.90;;;;;;5058531;28;20055;-73
2022/12/14 09:32:18;;;;;;;15.27;9.10;;;-0.80;99.90;;;;;;5061690;28;20091;-74
2022/12/14 09:34:45;;;;;;;16.67;8.57;;;-0.80;99.90;;;;;;5047074;28;20503;-73
2022/12/14 09:37:13;;;;;;;16.00;9.30;;;-0.70;99.90;;;;;;5041806;28;20135;-73
2022/12/14 09:39:39;;;;;;;16.83;10.02;;;-0.70;99.90;;;;;;5057192;28;20527;-73
2022/12/14 09:42:34;;;;;;;12.52;8.35;;;-0.60;99.90;;;;;;5041999;28;20540;-74
2022/12/14 09:45:04;;;;;;;11.57;7.75;;;-0.50;99.90;;;;;;5055648;28;20037;-73
2022/12/14 09:47:41;;;;;;;14.48;7.72;;;-0.50;99.90;;;;;;5055480;28;20498;-73
2022/12/14 09:50:16;;;;;;;13.25;8.18;;;-0.50;99.90;;;;;;5062558;28;20052;-74
2022/12/14 09:52:53;;;;;;;11.68;7.85;;;-0.40;99.90;;;;;;5056180;28;20792;-73
2022/12/14 09:55:32;;;;;;;17.90;9.43;;;-0.30;99.90;;;;;;5050401;28;20428;-80
2022/12/14 09:58:17;;;;;;;16.88;10.07;;;-0.30;99.90;;;;;;5057753;28;20143;-80
2022/12/14 10:01:02;;;;;;;16.50;9.90;;;-0.30;99.90;;;;;;5042276;28;20048;-79
2022/12/14 10:03:41;;;;;;;18.00;10.90;;;-0.30;99.90;;;;;;5049408;28;20143;-83
2022/12/14 10:06:33;;;;;;;15.60;9.65;;;-0.30;99.90;;;;;;5070009;28;20060;-83
2022/12/14 10:09:21;;;;;;;15.45;8.75;;;-0.20;99.90;;;;;;5053237;28;20049;-84
2022/12/14 10:11:54;;;;;;;13.90;8.98;;;-0.10;99.90;;;;;;5060042;28;20056;-83
2022/12/14 10:14:24;;;;;;;;;;;0.00;99.90;;;;;;5061283;28;20325;-83
2022/12/14 10:17:09;;;;;;;13.75;7.22;;;0.00;99.90;;;;;;5061329;28;20011;-82
2022/12/14 10:19:52;;;;;;;12.32;7.78;;;0.10;99.90;;;;;;5057033;28;20195;-84
2022/12/14 10:22:36;;;;;;;8.82;6.13;;;0.10;99.90;;;;;;5036176;28;20059;-82
2022/12/14 10:25:05;;;;;;;10.82;7.25;;;0.20;99.90;;;;;;5029734;28;20048;-83
2022/12/14 10:27:32;;;;;;;11.63;7.20;;;0.20;99.90;;;;;;5037187;28;20122;-83
2022/12/14 10:30:22;;;;;;;13.13;7.15;;;0.30;99.90;;;;;;5056161;28;20048;-83
2022/12/14 10:32:52;;;;;;;16.25;8.48;;;0.40;99.90;;;;;;5024757;28;20170;-82
2022/12/14 10:35:52;;;;;;;13.38;8.00;;;0.40;99.90;;;;;;5024828;28;20131;-83
2022/12/14 10:38:40;;;;;;;13.48;8.48;;;0.50;99.90;;;;;;5042615;28;20182;-84
2022/12/14 10:41:35;;;;;;;12.48;7.90;;;0.60;99.90;;;;;;5075624;28;20647;-82
2022/12/14 10:44:31;;;;;;;14.43;9.07;;;0.70;99.90;;;;;;5057316;28;20087;-82
2022/12/14 10:47:22;;;;;;;13.82;8.43;;;0.60;99.90;;;;;;5039688;28;20058;-84
2022/12/14 10:50:00;;;;;;;14.43;8.63;;;0.70;99.90;;;;;;5041828;28;20465;-83
2022/12/14 10:52:33;;;;;;;12.80;8.10;;;0.80;99.90;;;;;;5033147;28;20313;-82
2022/12/14 10:55:05;;;;;;;15.23;9.38;;;0.80;99.90;;;;;;5045902;28;20147;-83
2022/12/14 10:57:32;;;;;;;13.93;9.10;;;0.80;99.90;;;;;;5039627;28;20057;-81
2022/12/14 10:59:59;;;;;;;16.60;9.65;;;0.90;99.90;;;;;;5052021;28;20472;-81
2022/12/14 11:02:47;;;;;;;15.20;9.27;;;0.90;99.90;;;;;;5056786;28;20135;-82
2022/12/14 11:05:37;;;;;;;14.68;9.00;;;0.90;99.90;;;;;;5056693;28;20055;-82
2022/12/14 11:08:08;;;;;;;18.02;10.65;;;0.90;99.90;;;;;;5059203;28;20075;-82
2022/12/14 11:10:35;;;;;;;15.00;8.93;;;1.00;99.90;;;;;;5061504;28;20059;-82
2022/12/14 11:13:05;;;;;;;12.73;8.63;;;1.00;99.90;;;;;;5037022;28;20052;-82
2022/12/14 11:15:37;;;;;;;14.82;8.50;;;1.10;99.90;;;;;;5034038;28;20059;-85
2022/12/14 11:18:16;;;;;;;15.88;9.07;;;1.00;99.90;;;;;;5043299;28;20503;-83
2022/12/14 11:20:56;;;;;;;14.38;9.23;;;1.10;99.90;;;;;;5060051;28;20182;-83
2022/12/14 11:23:28;;;;;;;13.50;8.02;;;1.20;99.90;;;;;;5051952;28;20079;-83
2022/12/14 11:25:59;;;;;;;13.70;9.55;;;1.20;99.90;;;;;;5028056;28;20571;-82
2022/12/14 11:28:49;;;;;;;15.80;9.90;;;1.20;99.90;;;;;;5043943;28;20131;-82
2022/12/14 11:31:19;;;;;;;15.10;9.70;;;1.10;99.90;;;;;;5024465;28;20041;-81
2022/12/14 11:33:47;;;;;;;15.90;10.13;;;1.10;99.90;;;;;;5057421;28;20052;-82
2022/12/14 11:36:29;;;;;;;17.42;10.35;;;1.10;99.90;;;;;;5058671;28;20052;-81
2022/12/14 11:38:58;;;;;;;12.90;7.93;;;1.10;99.90;;;;;;5042809;28;20059;-84
2022/12/14 11:41:31;;;;;;;12.57;8.00;;;1.20;99.90;;;;;;5061245;28;20557;-81
2022/12/14 11:44:05;;;;;;;12.85;8.13;;;1.30;99.90;;;;;;5059395;28;20443;-82
2022/12/14 11:46:51;;;;;;;14.40;8.90;;;1.30;99.90;;;;;;5042313;28;20067;-82
2022/12/14 11:49:23;;;;;;;17.27;10.65;;;1.20;99.90;;;;;;5045166;28;20492;-83
2022/12/14 11:52:11;;;;;;;16.70;10.00;;;1.20;99.90;;;;;;5060797;28;20133;-82
2022/12/14 11:54:45;;;;;;;15.10;9.48;;;1.20;99.90;;;;;;5052261;28;20060;-81
2022/12/14 11:57:20;;;;;;;16.63;10.38;;;1.20;99.90;;;;;;5052541;28;20728;-82
2022/12/14 12:00:17;;;;;;;14.32;9.73;;;1.10;99.90;;;;;;5037589;28;20396;-82
2022/12/14 12:02:49;;;;;;;14.25;8.73;;;1.10;99.90;;;;;;5055274;28;20495;-82
2022/12/14 12:05:18;;;;;;;15.50;10.15;;;1.10;99.90;;;;;;5022844;28;20055;-83
2022/12/14 12:07:48;;;;;;;15.07;8.75;;;1.20;99.90;;;;;;5042243;28;20075;-82
2022/12/14 12:10:20;;;;;;;11.90;7.70;;;1.20;99.90;;;;;;5059732;28;20172;-83
2022/12/14 12:12:51;;;;;;;13.13;8.95;;;1.30;99.90;;;;;;5044113;28;20075;-84
2022/12/14 12:15:35;;;;;;;12.40;8.13;;;1.30;99.90;;;;;;5046452;28;20403;-83
2022/12/14 12:18:07;;;;;;;11.02;7.70;;;1.40;99.90;;;;;;5040107;28;20506;-80
2022/12/14 12:20:38;;;;;;;12.85;8.13;;;1.50;99.90;;;;;;5044823;28;20083;-81
2022/12/14 12:23:14;;;;;;;12.80;8.45;;;1.60;99.90;;;;;;5053878;28;20116;-81
2022/12/14 12:25:41;;;;;;;13.98;8.75;;;1.70;99.90;;;;;;5058570;28;20044;-82
2022/12/14 12:28:24;;;;;;;12.88;8.32;;;1.70;99.90;;;;;;5057525;28;20052;-82
2022/12/14 12:30:53;;;;;;;11.13;7.38;;;1.70;99.90;;;;;;5042143;28;20053;-83
2022/12/14 12:33:34;;;;;;;12.05;7.75;;;1.70;99.90;;;;;;5043163;28;20061;-80
2022/12/14 12:36:03;;;;;;;10.30;7.43;;;1.80;99.90;;;;;;5045617;28;20062;-82
2022/12/14 12:38:44;;;;;;;12.52;8.48;;;1.80;99.90;;;;;;5061562;28;20399;-80
2022/12/14 12:41:28;;;;;;;13.82;9.82;;;1.80;99.90;;;;;;5045169;28;20498;-81
2022/12/14 12:44:18;;;;;;;14.07;8.57;;;1.70;99.90;;;;;;5041533;28;20822;-83
2022/12/14 12:47:20;;;;;;;13.43;8.13;;;1.60;99.90;;;;;;5032459;28;20639;-84
2022/12/14 12:50:05;;;;;;;15.45;9.57;;;1.70;99.90;;;;;;5063072;28;20124;-83
2022/12/14 12:52:58;;;;;;;20.55;10.57;;;1.60;99.90;;;;;;5069371;28;20547;-84
2022/12/14 12:55:40;;;;;;;19.83;11.43;;;1.40;99.90;;;;;;5043082;28;20044;-80
2022/12/14 12:58:32;;;;;;;15.90;10.50;;;1.40;99.90;;;;;;5059718;28;20203;-79
2022/12/14 13:01:31;;;;;;;15.73;9.15;;;1.50;99.90;;;;;;5037453;28;20053;-80
2022/12/14 13:04:09;;;;;;;14.13;8.85;;;1.50;99.90;;;;;;5039483;28;20662;-79
2022/12/14 13:06:40;;;;;;;14.82;9.27;;;1.60;99.90;;;;;;5050243;28;20040;-79
2022/12/14 13:09:34;;;;;;;13.05;8.52;;;1.60;99.90;;;;;;5041924;28;20051;-79
2022/12/14 13:12:03;;;;;;;9.40;7.00;;;1.60;99.90;;;;;;5054155;28;20512;-79
2022/12/14 13:14:36;;;;;;;13.32;8.55;;;1.70;99.90;;;;;;5042029;28;20049;-79
2022/12/14 13:17:05;;;;;;;14.13;8.47;;;1.60;99.90;;;;;;5030021;28;20131;-79
2022/12/14 13:19:42;;;;;;;13.82;9.50;;;1.60;99.90;;;;;;5044524;28;20052;-80
2022/12/14 13:22:28;;;;;;;15.90;10.32;;;1.60;99.90;;;;;;5043766;28;20565;-79
2022/12/14 13:24:56;;;;;;;14.90;9.15;;;1.70;99.90;;;;;;5043435;28;20053;-79
2022/12/14 13:27:48;;;;;;;13.57;8.77;;;1.70;99.90;;;;;;5045454;28;20586;-80
2022/12/14 13:30:18;;;;;;;16.40;9.55;;;1.70;99.90;;;;;;5036079;28;20064;-80